Time;durP1;ratioP1;P1;durP2;ratioP2;P2;SDS_P1;SDS_P2;PMS_P1;PMS_P2;Temp;Humidity;BMP_temperature;BMP_pressure;BME280_temperature;BME280_humidity;BME280_pressure;Samples;Min_cycle;Max_cycle;Signal;HPM_P1;HPM_P2
2022/05/01 00:00:54;;;;;;;18.33;13.20;;;7.00;99.90;;;;;;4974837;28;20037;-56
2022/05/01 00:03:31;;;;;;;15.52;12.50;;;7.00;99.90;;;;;;4992810;28;20027;-56
2022/05/01 00:06:03;;;;;;;17.95;12.27;;;7.00;99.90;;;;;;4988848;28;20030;-52
2022/05/01 00:08:30;;;;;;;17.15;11.90;;;6.90;99.90;;;;;;5010900;28;20030;-55
2022/05/01 00:10:56;;;;;;;16.33;12.40;;;6.90;99.90;;;;;;5010040;28;20029;-55
2022/05/01 00:13:22;;;;;;;16.15;11.77;;;6.90;99.90;;;;;;5002873;28;20102;-54
2022/05/01 00:15:48;;;;;;;12.68;11.35;;;6.80;99.90;;;;;;4993001;28;20025;-52
2022/05/01 00:18:14;;;;;;;13.95;12.15;;;6.80;99.90;;;;;;4991808;28;20034;-54
2022/05/01 00:20:40;;;;;;;19.35;12.45;;;6.70;99.90;;;;;;5001210;28;20104;-52
2022/05/01 00:23:05;;;;;;;16.35;12.43;;;6.70;99.90;;;;;;4993733;28;20494;-56
2022/05/01 00:25:32;;;;;;;14.25;11.10;;;6.60;99.90;;;;;;4992737;28;20023;-56
2022/05/01 00:27:58;;;;;;;17.30;12.95;;;6.60;99.90;;;;;;5001300;28;20041;-54
2022/05/01 00:30:26;;;;;;;19.00;14.52;;;6.50;99.90;;;;;;5003238;28;20033;-54
2022/05/01 00:58:37;;;;;;;20.02;13.75;;;6.10;99.90;;;;;;4984165;28;20050;-54
2022/05/01 01:01:03;;;;;;;19.65;13.88;;;6.00;99.90;;;;;;4990929;28;20089;-53
2022/05/01 01:03:28;;;;;;;21.38;14.43;;;6.00;99.90;;;;;;4993286;28;20030;-56
2022/05/01 01:05:54;;;;;;;19.95;13.30;;;6.00;99.90;;;;;;5011025;28;20034;-56
2022/05/01 01:08:20;;;;;;;15.50;12.88;;;5.90;99.90;;;;;;5002980;28;20030;-52
2022/05/01 01:10:45;;;;;;;18.95;14.27;;;5.90;99.90;;;;;;5002802;28;20029;-54
2022/05/01 01:13:12;;;;;;;15.70;12.57;;;5.80;99.90;;;;;;5002915;28;20584;-55
2022/05/01 01:15:37;;;;;;;15.73;12.65;;;5.80;99.90;;;;;;4982495;28;20399;-52
2022/05/01 01:18:03;;;;;;;24.30;14.85;;;5.80;99.90;;;;;;4990161;28;20031;-53
2022/05/01 01:20:29;;;;;;;15.18;12.23;;;5.70;99.90;;;;;;4990729;28;20023;-55
2022/05/01 01:23:00;;;;;;;23.60;13.80;;;5.70;99.90;;;;;;4972899;28;20035;-52
2022/05/01 01:25:31;;;;;;;20.45;12.75;;;5.60;99.90;;;;;;4990082;28;20053;-55
2022/05/01 01:28:02;;;;;;;16.08;13.35;;;5.60;99.90;;;;;;4980176;28;20026;-54
2022/05/01 01:33:15;;;;;;;17.33;14.00;;;5.50;99.90;;;;;;5009479;28;20125;-51
2022/05/01 01:35:41;;;;;;;15.38;13.35;;;5.40;99.90;;;;;;5009983;28;20022;-56
2022/05/01 01:38:07;;;;;;;14.93;13.32;;;5.40;99.90;;;;;;5000996;28;20034;-54
2022/05/01 01:40:42;;;;;;;17.10;13.63;;;5.30;99.90;;;;;;4999805;28;20551;-53
2022/05/01 01:43:09;;;;;;;16.15;12.98;;;5.30;99.90;;;;;;5009816;28;20416;-54
2022/05/01 01:45:34;;;;;;;19.77;13.98;;;5.30;99.90;;;;;;5001464;28;20022;-53
2022/05/01 01:48:14;;;;;;;17.17;13.75;;;5.20;99.90;;;;;;4990481;28;20562;-51
2022/05/01 01:50:41;;;;;;;19.83;14.23;;;5.20;99.90;;;;;;4997273;28;20034;-52
2022/05/01 01:53:08;;;;;;;22.67;15.07;;;5.20;99.90;;;;;;5006653;28;20034;-55
2022/05/01 01:55:37;;;;;;;18.13;13.70;;;5.10;99.90;;;;;;5005845;28;20019;-53
2022/05/01 01:58:03;;;;;;;16.00;13.52;;;5.00;99.90;;;;;;4991170;28;20025;-50
2022/05/01 02:00:29;;;;;;;19.27;14.20;;;5.00;99.90;;;;;;4990343;28;20028;-55
2022/05/01 02:02:58;;;;;;;18.42;12.93;;;5.00;99.90;;;;;;4991810;28;20026;-54
2022/05/01 02:05:24;;;;;;;16.05;13.23;;;5.00;99.90;;;;;;4994710;28;20026;-56
2022/05/01 02:07:49;;;;;;;14.32;12.85;;;5.00;99.90;;;;;;5010082;28;20041;-56
2022/05/01 02:10:15;;;;;;;18.45;13.93;;;4.90;99.90;;;;;;5007953;28;20680;-55
2022/05/01 02:12:41;;;;;;;21.63;13.55;;;4.90;99.90;;;;;;4989604;28;20121;-54
2022/05/01 02:15:06;;;;;;;17.05;13.60;;;4.90;99.90;;;;;;4989222;28;20025;-54
2022/05/01 02:17:33;;;;;;;17.45;13.93;;;4.90;99.90;;;;;;4990382;28;20037;-53
2022/05/01 02:19:59;;;;;;;19.00;14.43;;;5.00;99.90;;;;;;5000471;28;20393;-57
2022/05/01 02:22:24;;;;;;;19.55;14.10;;;5.00;99.90;;;;;;5008817;28;20026;-54
2022/05/01 02:24:50;;;;;;;20.70;14.93;;;5.00;99.90;;;;;;5004486;28;20448;-54
2022/05/01 02:27:16;;;;;;;17.83;13.50;;;5.00;99.90;;;;;;5008639;28;20033;-54
2022/05/01 02:29:43;;;;;;;16.85;13.27;;;5.00;99.90;;;;;;5006925;28;20038;-57
2022/05/01 02:32:08;;;;;;;17.58;12.88;;;5.00;99.90;;;;;;5004192;28;20120;-55
2022/05/01 02:34:34;;;;;;;17.05;13.75;;;5.00;99.90;;;;;;4989143;28;20113;-53
2022/05/01 02:36:59;;;;;;;16.88;12.70;;;5.10;99.90;;;;;;4991121;28;20038;-55
2022/05/01 02:39:25;;;;;;;17.52;14.30;;;5.10;99.90;;;;;;5008664;28;20042;-54
2022/05/01 02:41:51;;;;;;;20.45;15.65;;;5.10;99.90;;;;;;4989940;28;20393;-53
2022/05/01 02:44:16;;;;;;;20.15;14.38;;;5.20;99.90;;;;;;4990857;28;20131;-55
2022/05/01 02:46:42;;;;;;;19.00;14.75;;;5.10;99.90;;;;;;5007494;28;20045;-54
2022/05/01 02:49:08;;;;;;;21.85;15.45;;;5.20;99.90;;;;;;4971352;28;20035;-54
2022/05/01 02:51:34;;;;;;;18.23;13.95;;;5.20;99.90;;;;;;4989412;28;20026;-52
2022/05/01 02:54:01;;;;;;;19.90;14.40;;;5.20;99.90;;;;;;4999642;28;20029;-55
2022/05/01 02:56:26;;;;;;;19.20;15.52;;;5.20;99.90;;;;;;4991437;28;20022;-52
2022/05/01 02:58:52;;;;;;;18.10;13.68;;;5.20;99.90;;;;;;4993139;28;20029;-54
2022/05/01 03:01:18;;;;;;;19.05;13.68;;;5.20;99.90;;;;;;4974683;28;20026;-52
2022/05/01 03:03:44;;;;;;;18.80;12.50;;;5.30;99.90;;;;;;4992853;28;20030;-53
2022/05/01 03:06:09;;;;;;;16.08;13.38;;;5.30;99.90;;;;;;4990461;28;20041;-56
2022/05/01 03:08:35;;;;;;;16.38;13.13;;;5.30;99.90;;;;;;5011440;28;20127;-52
2022/05/01 03:11:03;;;;;;;16.17;13.70;;;5.30;99.90;;;;;;4994821;28;20041;-55
2022/05/01 03:13:29;;;;;;;17.05;12.80;;;5.40;99.90;;;;;;4939056;28;1036049;-56
2022/05/01 03:15:55;;;;;;;17.83;13.27;;;5.40;99.90;;;;;;5011272;28;20485;-54
2022/05/01 03:23:49;;;;;;;16.27;13.32;;;5.40;99.90;;;;;;5010858;28;20137;-53
2022/05/01 03:26:18;;;;;;;23.33;14.32;;;5.40;99.90;;;;;;4992433;28;20101;-51
2022/05/01 03:28:45;;;;;;;18.35;12.63;;;5.50;99.90;;;;;;4975993;28;20029;-56
2022/05/01 03:31:12;;;;;;;18.67;13.27;;;5.50;99.90;;;;;;4992567;28;20109;-57
2022/05/01 03:33:38;;;;;;;17.50;12.77;;;5.50;99.90;;;;;;4992461;28;20030;-54
2022/05/01 03:36:06;;;;;;;15.68;12.50;;;5.50;99.90;;;;;;4975475;28;20037;-55
2022/05/01 03:38:37;;;;;;;17.98;12.95;;;5.50;99.90;;;;;;4993016;28;20057;-55
2022/05/01 03:41:05;;;;;;;17.88;13.10;;;5.60;99.90;;;;;;4992679;28;20030;-54
2022/05/01 03:43:35;;;;;;;16.23;12.85;;;5.60;99.90;;;;;;4976178;28;20042;-54
2022/05/01 03:46:02;;;;;;;18.42;12.73;;;5.60;99.90;;;;;;4992866;28;20499;-54
2022/05/01 03:48:28;;;;;;;15.05;11.95;;;5.50;99.90;;;;;;4995656;28;20034;-53
2022/05/01 03:50:54;;;;;;;16.38;12.68;;;5.50;99.90;;;;;;4992631;28;20037;-55
2022/05/01 03:53:21;;;;;;;15.85;11.95;;;5.40;99.90;;;;;;5005105;28;20180;-51
2022/05/01 03:55:47;;;;;;;19.13;12.57;;;5.40;99.90;;;;;;5012034;28;20088;-53
2022/05/01 03:58:13;;;;;;;14.27;12.82;;;5.30;99.90;;;;;;5010178;28;20057;-53
2022/05/01 04:00:41;;;;;;;16.45;12.52;;;5.30;99.90;;;;;;5011471;28;20030;-52
2022/05/01 04:03:06;;;;;;;18.50;13.70;;;5.30;99.90;;;;;;4989068;28;20040;-55
2022/05/01 04:05:35;;;;;;;16.33;12.55;;;5.20;99.90;;;;;;5011934;28;20143;-51
2022/05/01 04:08:00;;;;;;;20.27;12.68;;;5.20;99.90;;;;;;4982585;28;20074;-54
2022/05/01 04:10:26;;;;;;;15.35;12.35;;;5.20;99.90;;;;;;4992003;28;20486;-57
2022/05/01 04:12:51;;;;;;;15.30;11.43;;;5.10;99.90;;;;;;5001180;28;20038;-55
2022/05/01 04:15:17;;;;;;;16.90;12.65;;;5.10;99.90;;;;;;5010695;28;20125;-57
2022/05/01 04:17:43;;;;;;;16.85;12.85;;;5.00;99.90;;;;;;4992140;28;20076;-57
2022/05/01 04:20:09;;;;;;;15.38;12.73;;;5.00;99.90;;;;;;4991860;28;20022;-54
2022/05/01 04:22:45;;;;;;;14.80;10.95;;;5.00;99.90;;;;;;4992749;28;20085;-57
2022/05/01 04:25:21;;;;;;;16.55;12.38;;;4.90;99.90;;;;;;4991290;28;20077;-55
2022/05/01 04:27:47;;;;;;;;;;;4.90;99.90;;;;;;4972996;28;20038;-55
2022/05/01 04:30:14;;;;;;;17.70;12.15;;;4.90;99.90;;;;;;4989751;28;19964;-57
2022/05/01 04:33:01;;;;;;;14.38;12.38;;;4.90;99.90;;;;;;5010560;28;20154;-56
2022/05/01 04:35:29;;;;;;;17.00;12.27;;;4.80;99.90;;;;;;4998109;28;20112;-55
2022/05/01 04:37:59;;;;;;;14.02;11.68;;;4.80;99.90;;;;;;4991195;28;20026;-56
2022/05/01 04:40:26;;;;;;;19.23;12.50;;;4.80;99.90;;;;;;5001513;28;20026;-57
2022/05/01 04:42:52;;;;;;;17.48;12.25;;;4.80;99.90;;;;;;5010902;28;20036;-56
2022/05/01 04:45:18;;;;;;;14.15;12.02;;;4.80;99.90;;;;;;4993757;28;20026;-56
2022/05/01 04:47:45;;;;;;;20.58;13.70;;;4.80;99.90;;;;;;4991122;28;20041;-57
2022/05/01 04:50:11;;;;;;;18.98;13.20;;;4.80;99.90;;;;;;4992105;28;20100;-53
2022/05/01 04:52:38;;;;;;;14.80;12.38;;;4.70;99.90;;;;;;4990485;28;20034;-55
2022/05/01 04:55:05;;;;;;;14.80;12.57;;;4.80;99.90;;;;;;5005527;28;20083;-51
2022/05/01 04:57:31;;;;;;;14.50;11.88;;;4.70;99.90;;;;;;5011301;28;20085;-53
2022/05/01 04:59:57;;;;;;;17.48;11.60;;;4.70;99.90;;;;;;5009203;28;20030;-55
2022/05/01 05:02:22;;;;;;;13.02;11.57;;;4.70;99.90;;;;;;4982934;28;20176;-55
2022/05/01 05:04:49;;;;;;;14.38;12.18;;;4.70;99.90;;;;;;4991111;28;20634;-55
2022/05/01 05:07:14;;;;;;;12.85;11.48;;;4.70;99.90;;;;;;4991201;28;20022;-54
2022/05/01 05:09:55;;;;;;;16.38;12.23;;;4.80;99.90;;;;;;4990913;28;20429;-55
2022/05/01 05:12:22;;;;;;;14.93;12.18;;;4.80;99.90;;;;;;4990391;28;20037;-57
2022/05/01 05:14:51;;;;;;;16.13;11.63;;;4.80;99.90;;;;;;4990862;28;20030;-57
2022/05/01 05:17:18;;;;;;;14.13;11.73;;;4.90;99.90;;;;;;4990598;28;20018;-56
2022/05/01 05:19:45;;;;;;;14.98;11.98;;;4.90;99.90;;;;;;4990715;28;20029;-55
2022/05/01 05:22:11;;;;;;;16.67;11.48;;;5.00;99.90;;;;;;4999776;28;20060;-51
2022/05/01 05:24:37;;;;;;;16.20;12.73;;;5.00;99.90;;;;;;5009914;28;20517;-53
2022/05/01 05:27:03;;;;;;;16.73;11.48;;;5.10;99.90;;;;;;5010321;28;20034;-55
2022/05/01 05:29:28;;;;;;;12.90;10.70;;;5.20;99.90;;;;;;5009707;28;20505;-51
2022/05/01 05:31:54;;;;;;;18.23;11.00;;;5.30;99.90;;;;;;5009870;28;20060;-55
2022/05/01 05:34:19;;;;;;;13.18;11.77;;;5.30;99.90;;;;;;5001401;28;20033;-57
2022/05/01 05:36:45;;;;;;;17.92;12.10;;;5.40;99.90;;;;;;4991048;28;20027;-52
2022/05/01 05:39:11;;;;;;;17.13;12.38;;;5.60;99.90;;;;;;4990441;28;20410;-55
2022/05/01 05:41:37;;;;;;;14.73;11.02;;;5.70;99.90;;;;;;4988285;28;20021;-54
2022/05/01 05:44:03;;;;;;;13.68;11.15;;;5.80;99.90;;;;;;4995996;28;20034;-55
2022/05/01 05:46:28;;;;;;;13.60;11.20;;;6.00;99.90;;;;;;5009544;28;20105;-54
2022/05/01 05:48:54;;;;;;;14.38;11.75;;;6.20;99.90;;;;;;5000095;28;20438;-53
2022/05/01 05:51:20;;;;;;;14.55;11.00;;;6.30;99.90;;;;;;4999975;28;20033;-55
2022/05/01 05:53:45;;;;;;;12.57;10.55;;;6.40;99.90;;;;;;5002327;28;20394;-51
2022/05/01 05:56:11;;;;;;;15.15;10.70;;;6.60;99.90;;;;;;4990386;28;20026;-55
2022/05/01 05:58:36;;;;;;;12.50;9.50;;;6.70;99.90;;;;;;4990230;28;20053;-53
2022/05/01 06:01:02;;;;;;;11.30;9.45;;;6.80;99.90;;;;;;4990265;28;20034;-58
2022/05/01 06:03:28;;;;;;;15.57;9.68;;;7.00;99.90;;;;;;4990868;28;20056;-54
2022/05/01 06:05:54;;;;;;;19.50;9.48;;;7.10;99.90;;;;;;4990240;28;20027;-54
2022/05/01 06:08:19;;;;;;;11.60;8.95;;;7.20;99.90;;;;;;4991299;28;20066;-53
2022/05/01 06:10:45;;;;;;;12.70;9.55;;;7.30;99.90;;;;;;4990517;28;20030;-57
2022/05/01 06:13:10;;;;;;;14.10;9.70;;;7.30;99.90;;;;;;4990564;28;20030;-53
2022/05/01 06:15:38;;;;;;;11.10;9.20;;;7.40;99.90;;;;;;4992351;28;20481;-52
2022/05/01 06:18:04;;;;;;;13.82;9.48;;;7.50;99.90;;;;;;4991848;28;20022;-54
2022/05/01 06:20:29;;;;;;;9.07;8.18;;;7.50;99.90;;;;;;4990258;28;20044;-56
2022/05/01 06:22:56;;;;;;;13.25;9.52;;;7.60;99.90;;;;;;4989605;28;20030;-57
2022/05/01 06:25:22;;;;;;;11.43;8.23;;;7.70;99.90;;;;;;5008001;28;20505;-57
2022/05/01 06:27:47;;;;;;;11.45;8.10;;;7.70;99.90;;;;;;4991709;28;20058;-54
2022/05/01 06:30:13;;;;;;;10.85;8.38;;;7.80;99.90;;;;;;4993041;28;20022;-53
2022/05/01 06:32:39;;;;;;;12.10;8.18;;;7.90;99.90;;;;;;5003624;28;20068;-56
2022/05/01 06:35:07;;;;;;;7.32;6.40;;;7.90;99.90;;;;;;5011389;28;20026;-56
2022/05/01 06:37:35;;;;;;;7.97;5.53;;;8.00;99.90;;;;;;5011779;28;20064;-54
2022/05/01 06:40:01;;;;;;;8.90;5.25;;;8.10;99.90;;;;;;5011511;28;20026;-56
2022/05/01 06:42:28;;;;;;;8.40;4.75;;;8.10;99.90;;;;;;4995744;28;20037;-52
2022/05/01 06:44:54;;;;;;;8.43;5.32;;;8.20;99.90;;;;;;5005208;28;20100;-54
2022/05/01 06:47:19;;;;;;;12.90;5.10;;;8.30;99.90;;;;;;4997203;28;20046;-54
2022/05/01 06:49:45;;;;;;;6.60;5.03;;;8.40;99.90;;;;;;4997521;28;20046;-54
2022/05/01 06:52:10;;;;;;;8.27;4.50;;;8.50;99.90;;;;;;4997622;28;20030;-52
2022/05/01 06:54:36;;;;;;;10.73;4.40;;;8.70;99.90;;;;;;4998099;28;20025;-56
2022/05/01 06:57:02;;;;;;;7.20;3.55;;;8.80;99.90;;;;;;4993658;28;20030;-55
2022/05/01 06:59:28;;;;;;;5.97;3.67;;;8.90;99.90;;;;;;4976019;28;20022;-55
2022/05/01 07:01:53;;;;;;;5.63;4.45;;;9.00;99.90;;;;;;4992936;28;20030;-52
2022/05/01 07:04:19;;;;;;;7.00;4.20;;;9.10;99.90;;;;;;4993455;28;20029;-54
2022/05/01 07:06:45;;;;;;;4.18;3.72;;;9.20;99.90;;;;;;4993374;28;20048;-52
2022/05/01 07:09:11;;;;;;;5.80;3.33;;;9.30;99.90;;;;;;4993158;28;20449;-55
2022/05/01 07:11:36;;;;;;;7.13;3.85;;;9.30;99.90;;;;;;4992954;28;20058;-57
2022/05/01 07:14:02;;;;;;;6.72;3.90;;;9.40;99.90;;;;;;4993052;28;20070;-53
2022/05/01 07:16:28;;;;;;;7.50;4.05;;;9.40;99.90;;;;;;4993318;28;20027;-56
2022/05/01 07:18:53;;;;;;;7.15;3.90;;;9.50;99.90;;;;;;4993298;28;20034;-55
2022/05/01 07:21:19;;;;;;;5.18;3.60;;;9.60;99.90;;;;;;4993038;28;20018;-56
2022/05/01 07:23:45;;;;;;;4.60;3.65;;;9.50;99.90;;;;;;4992837;28;20034;-55
2022/05/01 07:26:10;;;;;;;10.88;4.32;;;9.50;99.90;;;;;;4992896;28;20088;-51
2022/05/01 07:28:36;;;;;;;6.03;4.18;;;9.60;99.90;;;;;;4993806;28;20065;-50
2022/05/01 07:31:03;;;;;;;7.15;3.63;;;9.70;99.90;;;;;;4977334;28;20052;-55
2022/05/01 07:33:29;;;;;;;9.23;5.10;;;9.80;99.90;;;;;;4986607;28;20445;-55
2022/05/01 07:35:55;;;;;;;6.80;4.03;;;9.90;99.90;;;;;;5012222;28;20018;-56
2022/05/01 07:38:20;;;;;;;8.88;4.07;;;9.90;99.90;;;;;;5006723;28;20062;-53
2022/05/01 07:40:46;;;;;;;5.93;3.58;;;9.90;99.90;;;;;;5005810;28;20454;-52
2022/05/01 07:43:12;;;;;;;6.03;3.47;;;10.00;99.90;;;;;;5010153;28;20018;-54
2022/05/01 07:45:37;;;;;;;6.95;3.67;;;10.20;99.90;;;;;;5012108;28;20061;-56
2022/05/01 07:48:03;;;;;;;7.22;3.63;;;10.30;99.90;;;;;;5008721;28;20048;-53
2022/05/01 07:50:29;;;;;;;9.25;4.20;;;10.50;99.90;;;;;;4992066;28;20042;-51
2022/05/01 07:52:54;;;;;;;8.57;4.20;;;10.60;99.90;;;;;;4991303;28;20486;-51
2022/05/01 07:55:20;;;;;;;6.90;4.18;;;10.70;99.90;;;;;;4981995;28;20026;-50
2022/05/01 07:57:46;;;;;;;5.47;4.00;;;10.90;99.90;;;;;;5011724;28;20022;-55
2022/05/01 08:00:13;;;;;;;5.88;4.57;;;11.20;99.90;;;;;;4973026;28;20041;-54
2022/05/01 08:05:31;;;;;;;6.28;3.65;;;11.80;99.90;;;;;;4956858;28;20054;-52
2022/05/01 08:07:57;;;;;;;5.72;2.70;;;12.20;99.90;;;;;;4975890;28;20035;-54
2022/05/01 08:10:23;;;;;;;3.97;3.25;;;12.60;99.90;;;;;;5011777;28;20026;-54
2022/05/01 08:12:49;;;;;;;7.45;3.05;;;12.80;99.90;;;;;;5010945;28;20044;-54
2022/05/01 08:15:19;;;;;;;7.85;3.15;;;13.20;99.90;;;;;;4991764;28;20458;-55
2022/05/01 08:17:46;;;;;;;5.07;2.38;;;13.30;99.90;;;;;;4991091;28;20015;-55
2022/05/01 08:23:04;;;;;;;2.42;2.22;;;13.40;99.90;;;;;;4996150;28;20060;-55
2022/05/01 08:25:29;;;;;;;3.97;2.58;;;13.60;99.90;;;;;;4991512;28;20497;-56
2022/05/01 08:27:55;;;;;;;3.75;2.53;;;13.60;99.90;;;;;;4993022;28;20041;-57
2022/05/01 08:30:20;;;;;;;3.40;2.00;;;13.80;99.90;;;;;;5005632;28;20041;-56
2022/05/01 08:32:46;;;;;;;4.65;3.13;;;14.00;99.90;;;;;;4990747;28;20057;-58
2022/05/01 08:35:12;;;;;;;4.13;2.30;;;14.10;99.90;;;;;;4996085;28;20102;-57
2022/05/01 08:37:38;;;;;;;5.50;2.60;;;14.00;99.90;;;;;;5010504;28;20545;-56
2022/05/01 08:40:04;;;;;;;3.22;1.98;;;13.90;99.90;;;;;;5008050;28;20034;-55
2022/05/01 08:42:33;;;;;;;4.28;2.22;;;14.10;99.90;;;;;;5006720;28;20490;-51
2022/05/01 08:45:01;;;;;;;3.78;1.85;;;14.20;99.90;;;;;;5010926;28;20409;-56
2022/05/01 08:47:53;;;;;;;2.53;1.73;;;14.40;99.90;;;;;;4991748;28;20080;-56
2022/05/01 08:50:21;;;;;;;2.58;1.60;;;14.40;99.40;;;;;;5010439;28;20074;-54
2022/05/01 08:52:48;;;;;;;2.55;1.48;;;14.30;98.30;;;;;;4996393;28;20029;-56
2022/05/01 08:55:16;;;;;;;2.80;1.63;;;14.00;96.30;;;;;;4991781;28;20073;-52
2022/05/01 08:57:41;;;;;;;1.85;1.20;;;14.10;99.10;;;;;;5008789;28;20022;-54
2022/05/01 09:00:08;;;;;;;5.07;1.63;;;13.90;97.50;;;;;;4999259;28;20034;-50
2022/05/01 09:02:34;;;;;;;2.10;1.50;;;14.30;99.70;;;;;;4990707;28;20066;-52
2022/05/01 09:05:00;;;;;;;1.35;1.00;;;14.70;97.60;;;;;;5008590;28;20049;-57
2022/05/01 09:07:26;;;;;;;6.28;1.33;;;14.90;96.50;;;;;;5008505;28;20121;-53
2022/05/01 09:09:51;;;;;;;1.17;1.05;;;15.10;98.50;;;;;;5003544;28;20037;-50
2022/05/01 09:15:04;;;;;;;3.15;1.45;;;15.40;96.00;;;;;;4991265;28;20402;-52
2022/05/01 09:17:30;;;;;;;2.92;1.23;;;15.40;95.00;;;;;;4991956;28;20113;-55
2022/05/01 09:20:09;;;;;;;4.82;1.10;;;15.20;90.50;;;;;;4990717;28;20098;-54
2022/05/01 09:23:07;;;;;;;0.80;0.80;;;14.60;90.30;;;;;;5000585;28;20406;-55
2022/05/01 09:25:33;;;;;;;2.22;1.52;;;14.40;89.50;;;;;;4962134;28;20104;-55
2022/05/01 09:28:17;;;;;;;2.90;0.77;;;14.60;92.60;;;;;;4974436;28;20483;-54
2022/05/01 09:30:44;;;;;;;2.03;1.00;;;14.90;92.90;;;;;;4996670;28;20034;-53
2022/05/01 09:33:21;;;;;;;1.85;0.90;;;15.30;91.00;;;;;;5003095;28;20049;-53
2022/05/01 09:35:46;;;;;;;;;;;15.90;91.90;;;;;;5005789;28;20022;-56
2022/05/01 09:38:23;;;;;;;1.83;0.90;;;16.40;87.80;;;;;;5003615;28;20273;-53
2022/05/01 09:40:51;;;;;;;2.03;0.95;;;16.20;81.80;;;;;;5009661;28;20030;-55
2022/05/01 09:43:37;;;;;;;4.97;1.10;;;16.10;79.20;;;;;;4987899;28;20042;-53
2022/05/01 09:46:22;;;;;;;1.13;0.60;;;16.20;81.40;;;;;;4974439;28;20158;-51
2022/05/01 09:49:00;;;;;;;1.17;1.02;;;16.10;76.40;;;;;;4974246;28;20027;-50
2022/05/01 09:51:42;;;;;;;2.45;1.00;;;16.30;75.20;;;;;;4974383;28;20153;-53
2022/05/01 09:54:09;;;;;;;1.10;0.80;;;16.10;75.30;;;;;;4979277;28;20506;-55
2022/05/01 09:56:50;;;;;;;1.05;0.85;;;15.90;76.70;;;;;;4978351;28;20027;-51
2022/05/01 09:59:20;;;;;;;2.75;1.13;;;15.90;79.60;;;;;;4970937;28;20073;-53
2022/05/01 10:02:03;;;;;;;3.60;1.50;;;16.30;82.60;;;;;;4985383;28;20375;-56
2022/05/01 10:04:31;;;;;;;2.30;1.05;;;16.80;79.70;;;;;;4980149;28;20109;-54
2022/05/01 10:06:57;;;;;;;2.17;1.73;;;17.00;76.00;;;;;;4990123;28;20622;-51
2022/05/01 10:09:28;;;;;;;3.10;1.38;;;17.10;74.60;;;;;;4990036;28;20410;-51
2022/05/01 10:11:59;;;;;;;3.47;1.42;;;17.20;75.00;;;;;;4989415;28;20026;-53
2022/05/01 10:14:29;;;;;;;1.58;1.20;;;16.80;72.70;;;;;;4989314;28;20069;-53
2022/05/01 10:16:56;;;;;;;1.45;1.35;;;16.40;75.50;;;;;;4989636;28;20362;-53
2022/05/01 10:19:23;;;;;;;2.10;1.35;;;15.90;73.90;;;;;;4989641;28;20033;-55
2022/05/01 10:21:56;;;;;;;3.40;1.10;;;15.40;72.20;;;;;;4989736;28;20425;-52
2022/05/01 10:24:23;;;;;;;1.20;0.98;;;15.10;73.00;;;;;;4971831;28;20094;-53
2022/05/01 10:26:57;;;;;;;0.73;0.73;;;14.90;71.40;;;;;;4989920;28;20031;-55
2022/05/01 10:33:15;;;;;;;1.88;1.45;;;14.50;73.30;;;;;;4989315;28;20077;-52
2022/05/01 10:35:50;;;;;;;2.20;1.15;;;14.30;72.80;;;;;;4989700;28;20019;-53
2022/05/01 10:38:54;;;;;;;1.50;1.10;;;14.50;77.00;;;;;;4989440;28;20037;-52
2022/05/01 10:41:22;;;;;;;2.13;1.27;;;14.60;74.60;;;;;;4986234;28;20094;-57
2022/05/01 10:43:56;;;;;;;3.60;1.23;;;14.80;75.40;;;;;;4989449;28;20043;-53
2022/05/01 10:46:21;;;;;;;6.63;1.27;;;15.20;78.20;;;;;;4989810;28;20038;-54
2022/05/01 10:48:48;;;;;;;3.03;1.00;;;15.40;74.60;;;;;;4970594;28;20026;-57
2022/05/01 10:51:31;;;;;;;2.13;0.82;;;15.70;74.50;;;;;;4937053;28;20031;-54
2022/05/01 10:54:15;;;;;;;3.10;0.90;;;15.80;76.30;;;;;;4976691;28;20026;-56
2022/05/01 10:56:48;;;;;;;1.67;0.80;;;15.90;75.60;;;;;;4988623;28;20026;-51
2022/05/01 10:59:29;;;;;;;2.78;1.20;;;16.20;73.00;;;;;;5001605;28;20061;-53
2022/05/01 11:01:56;;;;;;;2.40;0.98;;;16.30;73.50;;;;;;5004815;28;20534;-53
2022/05/01 11:04:23;;;;;;;4.15;1.30;;;16.30;71.10;;;;;;4971950;28;20442;-53
2022/05/01 11:06:53;;;;;;;0.88;0.75;;;16.40;74.50;;;;;;4972231;28;20029;-50
2022/05/01 11:09:23;;;;;;;2.97;0.95;;;16.50;72.30;;;;;;4972112;28;20031;-57
2022/05/01 11:11:57;;;;;;;1.63;0.80;;;16.20;66.70;;;;;;4988434;28;20026;-52
2022/05/01 11:14:42;;;;;;;1.80;0.90;;;16.10;70.10;;;;;;4989247;28;20097;-51
2022/05/01 11:17:08;;;;;;;2.50;1.27;;;16.00;69.90;;;;;;4992077;28;20085;-54
2022/05/01 11:19:51;;;;;;;1.00;0.90;;;15.90;69.60;;;;;;4993192;28;20015;-51
2022/05/01 11:22:25;;;;;;;5.50;1.13;;;15.80;70.30;;;;;;4992930;28;20062;-57
2022/05/01 11:24:51;;;;;;;3.97;0.90;;;15.90;72.50;;;;;;4993382;28;20058;-55
2022/05/01 11:27:18;;;;;;;0.93;0.85;;;15.80;68.80;;;;;;4993315;28;20058;-55
2022/05/01 11:30:05;;;;;;;4.38;1.08;;;15.60;70.20;;;;;;4992983;28;20453;-58
2022/05/01 11:32:43;;;;;;;1.00;0.93;;;15.50;71.30;;;;;;4992686;28;20045;-51
2022/05/01 11:35:11;;;;;;;1.70;0.90;;;15.20;68.80;;;;;;4993080;28;20510;-54
2022/05/01 11:37:47;;;;;;;0.75;0.65;;;15.00;69.80;;;;;;4992839;28;20030;-54
2022/05/01 11:40:23;;;;;;;1.35;0.88;;;14.80;71.30;;;;;;4992676;28;20031;-54
2022/05/01 11:42:49;;;;;;;1.15;1.02;;;14.90;74.00;;;;;;4992429;28;20502;-53
2022/05/01 11:45:15;;;;;;;1.67;0.93;;;15.00;73.10;;;;;;4992785;28;20034;-54
2022/05/01 11:47:41;;;;;;;2.92;1.10;;;15.00;73.40;;;;;;4974819;28;20046;-55
2022/05/01 11:50:15;;;;;;;2.75;0.88;;;15.00;69.90;;;;;;4991913;28;20061;-54
2022/05/01 11:52:44;;;;;;;2.63;1.00;;;15.10;70.50;;;;;;4975647;28;20050;-55
2022/05/01 11:55:11;;;;;;;1.35;0.82;;;15.20;71.30;;;;;;4992377;28;20526;-50
2022/05/01 12:03:05;;;;;;;1.80;1.17;;;15.20;71.00;;;;;;4991559;28;20331;-56
2022/05/01 12:05:40;;;;;;;2.33;1.10;;;15.30;72.20;;;;;;4992575;28;20029;-50
2022/05/01 12:08:06;;;;;;;2.88;1.38;;;15.20;69.20;;;;;;4992026;28;20026;-52
2022/05/01 12:10:31;;;;;;;1.27;0.88;;;15.20;69.80;;;;;;4992010;28;20117;-57
2022/05/01 12:12:57;;;;;;;2.50;0.77;;;15.20;68.60;;;;;;4990646;28;20030;-56
2022/05/01 12:15:22;;;;;;;1.85;1.25;;;15.30;70.90;;;;;;4991822;28;20410;-52
2022/05/01 12:17:48;;;;;;;1.45;1.05;;;15.40;71.60;;;;;;4991895;28;20425;-53
2022/05/01 12:20:13;;;;;;;3.30;1.13;;;15.60;71.20;;;;;;4991861;28;20030;-53
2022/05/01 12:22:39;;;;;;;2.13;1.30;;;15.70;70.70;;;;;;4991481;28;20161;-53
2022/05/01 12:25:11;;;;;;;1.95;1.10;;;15.80;72.20;;;;;;4991597;28;20375;-53
2022/05/01 12:27:40;;;;;;;1.08;0.95;;;15.80;71.00;;;;;;4990322;28;20038;-53
2022/05/01 12:30:07;;;;;;;1.45;1.15;;;15.80;70.00;;;;;;4991564;28;20026;-53
2022/05/01 12:32:34;;;;;;;2.10;1.20;;;15.40;69.90;;;;;;4990988;28;20034;-56
2022/05/01 12:35:03;;;;;;;0.70;0.70;;;15.20;69.30;;;;;;4988823;28;20029;-54
2022/05/01 12:37:32;;;;;;;2.65;0.85;;;15.30;72.30;;;;;;4991505;28;20035;-53
2022/05/01 12:40:10;;;;;;;0.88;0.70;;;15.30;71.70;;;;;;4974039;28;20501;-57
2022/05/01 12:45:46;;;;;;;3.30;1.15;;;15.70;70.20;;;;;;4985334;28;20136;-54
2022/05/01 12:48:14;;;;;;;0.68;0.65;;;15.50;68.70;;;;;;4991348;28;20414;-54
2022/05/01 12:50:41;;;;;;;1.08;0.90;;;15.30;70.50;;;;;;4991158;28;20050;-56
2022/05/01 12:53:29;;;;;;;3.67;2.15;;;15.40;71.60;;;;;;4990113;28;20030;-54
2022/05/01 12:55:57;;;;;;;0.80;0.80;;;15.70;71.70;;;;;;4991133;28;20038;-53
2022/05/01 12:58:34;;;;;;;4.07;2.55;;;15.60;69.80;;;;;;4991320;28;20022;-53
2022/05/01 13:01:03;;;;;;;2.90;1.73;;;15.80;70.30;;;;;;4988419;28;20030;-50
2022/05/01 13:03:36;;;;;;;3.70;1.00;;;15.90;69.30;;;;;;4990615;28;20038;-57
2022/05/01 13:06:13;;;;;;;2.45;1.48;;;15.90;68.40;;;;;;4973840;28;20057;-53
2022/05/01 13:08:46;;;;;;;2.45;1.40;;;16.00;68.70;;;;;;4991087;28;20459;-53
2022/05/01 13:11:19;;;;;;;1.48;1.00;;;16.00;67.60;;;;;;4990691;28;20045;-51
2022/05/01 13:13:56;;;;;;;1.58;1.15;;;16.00;68.70;;;;;;4990420;28;20030;-54
2022/05/01 13:16:31;;;;;;;1.17;0.98;;;16.10;68.90;;;;;;4991148;28;20050;-51
2022/05/01 13:19:18;;;;;;;1.15;0.70;;;16.20;70.60;;;;;;4990293;28;20521;-56
2022/05/01 13:21:47;;;;;;;0.90;0.80;;;16.30;69.40;;;;;;4973356;28;20026;-50
2022/05/01 13:24:23;;;;;;;1.00;0.73;;;16.40;69.70;;;;;;4990304;28;20516;-54
2022/05/01 13:26:51;;;;;;;1.75;0.90;;;16.60;72.90;;;;;;4990704;28;20049;-53
2022/05/01 13:29:17;;;;;;;1.27;0.65;;;16.60;68.10;;;;;;4990443;28;20022;-51
2022/05/01 13:31:44;;;;;;;1.13;0.90;;;16.70;70.20;;;;;;4990752;28;20038;-55
2022/05/01 13:34:10;;;;;;;2.10;0.88;;;16.70;68.70;;;;;;4990180;28;20138;-54
2022/05/01 13:36:37;;;;;;;3.20;1.00;;;16.70;69.00;;;;;;4990502;28;20023;-51
2022/05/01 13:39:05;;;;;;;1.20;0.80;;;16.50;68.60;;;;;;4989695;28;20030;-52
2022/05/01 13:47:00;;;;;;;1.98;0.93;;;16.00;68.60;;;;;;4990692;28;20049;-50
2022/05/01 13:49:26;;;;;;;4.20;2.33;;;15.80;70.30;;;;;;4990259;28;20044;-52